Aérodrome :
LOGIN :

S'inscrire | Disclaimer

   EN    FR    IT 

 










Légende :    VFR   VFR Marginal   IFR   IFR Intensif   IFR Très Intensif
Visi : 
Plafond : 
>= 8 km
>= 3000ft
5 à 8 km
1000 à 3000 ft
1500m à 5 km
500 à 1000 ft
800 à 1500m
200 à 500 ft
< 800m
< 200 ft
Symboles :   Orages  Brouillard  Fortes neiges  Fortes précipitations  Vent > 20 kt
SIGMETs :   Divers  Orages  Givrage  Turbulence  Onde Orograph.  Cendres Volcan.







- Altitude de l'aérodrome : 297 ft
- Code IATA : UIP
- Voir les cartes d'approche


LFRQ - Quimper Pluguffan

DERNIER METAR :
  • 232200Z AUTO 22014KT 200V260 3500 -DZ BR OVC002 12/12 Q1021 TEMPO 0800 -DZRA FG VV///

METARs EXPIRÉS :
  • 232130Z AUTO 23013KT 3900 -DZ BR OVC002 12/12 Q1021 TEMPO 0800 -DZRA FG VV///
  • 232100Z AUTO 23013KT 3300 -DZ BR VV/// 12/12 Q1021 TEMPO 0800 -DZRA FG
  • 232030Z AUTO 23014KT 1700 1400 R28/1800N -DZ BR VV/// 12/12 Q1021 TEMPO 0800 -DZRA FG
  • 232000Z AUTO 22012KT 3200 -DZ BR VV/// 12/12 Q1021 TEMPO 0800 -DZRA FG
  • 231930Z AUTO 22010KT 3700 -DZ BR VV/// 12/12 Q1021 TEMPO 0800 -DZRA FG
  • 231900Z AUTO 23011KT 4300 -DZ BR OVC003 12/12 Q1022 TEMPO 0800 -DZRA FG VV///

TAF TAF LFRQ
Valide du 23 à 18h jusqu'au 24 à 03h UTC


231700Z 2318/2403 23013KT 8000 OVC006
TEMPO 2318/2403 0800 -DZRA FG VV///
BECMG 2400/2403 22015G25KT
Pas de NOTAMs connus pour ce terrain.



MET'MAP, la Météo Aéronautique d'un coup d'oeil ! - Copyright ORBIFLY Décembre 2007 - Disclaimer

ORBIFLY MET'MAP TEAM :

Programmation & Développement : Alexandra Zaïnal
Conception & Développement : Baudouin d'Aumeries
Co-Programmation & Développement : Marc-Olivier Méhu
Soutien technique & logistique : Manuel Goepfert

Contact : metmap@orbifly.com




SOURCES & CREDITS :

   NOAA